Specktown, Pennsylvania
Current Conditions -  °F | °C
As of 4:53 PM on Saturday 25 Oct 2014 (Local Time) from KSEG Reporting Station
Overcast Overcast  
Wind Chill: 69°   Ceiling: 6500
Heat Index: 69°   Visibility: 10mi
Dew Point: 44°   Wind: 7mph
Humidity: 40%   Direction: NA
Pressure: 29.68"   Gusts: NA
Location:  40.6198°N, 76.7286°W
Report Text: KSEG 252053Z AUTO VRB06KT 10SM OVC065 21/07 A2968 RMK AO2 SLP051 T02060067 56029
Loading
Personal Weather Stations






























Interactive Weather Map
Tropical Storm Tracking
New forecast layout! Learn more

10-Day Weather Forecast

Advertisements
Track Severe Weather on mobile